createdAt,value
2019-04-23T00:00:03.448Z,14.80
2019-04-23T00:02:48.908Z,14.70
2019-04-23T00:05:29.091Z,14.80
2019-04-23T00:07:59.171Z,14.80
2019-04-23T00:10:24.881Z,14.60
2019-04-23T00:12:53.014Z,14.60
2019-04-23T00:15:21.499Z,14.60
2019-04-23T00:18:12.512Z,14.60
2019-04-23T00:20:28.209Z,14.60
2019-04-23T00:23:12.918Z,14.60
2019-04-23T00:25:49.178Z,14.50
2019-04-23T00:28:22.978Z,14.50
2019-04-23T00:30:49.649Z,14.40
2019-04-23T00:33:18.613Z,14.40
2019-04-23T00:35:44.043Z,14.40
2019-04-23T00:40:52.527Z,14.40
2019-04-23T00:43:37.730Z,14.30
2019-04-23T00:45:48.855Z,14.30
2019-04-23T00:48:28.312Z,14.30
2019-04-23T00:53:25.234Z,14.20
2019-04-23T00:55:55.737Z,14.00
2019-04-23T00:58:38.094Z,14.10
2019-04-23T01:01:00.334Z,14.10
2019-04-23T01:03:25.187Z,14.20
2019-04-23T01:05:59.145Z,14.20
2019-04-23T01:08:33.250Z,14.10
2019-04-23T01:11:08.289Z,14.10
2019-04-23T01:13:49.168Z,14.00
2019-04-23T01:19:06.785Z,14.10
2019-04-23T01:21:28.348Z,14.10
2019-04-23T01:24:29.727Z,13.90
2019-04-23T01:27:44.627Z,13.80
2019-04-23T01:30:09.744Z,13.80
2019-04-23T01:32:51.915Z,13.80
2019-04-23T01:35:17.684Z,14.00
2019-04-23T01:40:12.378Z,13.90
2019-04-23T01:42:44.527Z,13.90
2019-04-23T01:47:46.023Z,13.90
2019-04-23T01:55:22.682Z,13.70
2019-04-23T01:57:58.882Z,13.60
2019-04-23T02:00:27.314Z,13.50
2019-04-23T02:02:58.557Z,13.50
2019-04-23T02:05:27.525Z,13.50
2019-04-23T02:07:56.378Z,13.60
2019-04-23T02:13:01.811Z,13.60
2019-04-23T02:15:32.017Z,13.50
2019-04-23T02:20:36.979Z,13.50
2019-04-23T02:23:32.769Z,13.40
2019-04-23T02:28:33.037Z,13.50
2019-04-23T02:43:13.076Z,13.30
2019-04-23T02:45:39.490Z,13.10
2019-04-23T02:53:04.761Z,13.20
2019-04-23T02:55:43.061Z,13.30
2019-04-23T03:00:40.077Z,13.20
2019-04-23T03:03:06.046Z,13.20
2019-04-23T03:05:45.415Z,13.10
2019-04-23T03:08:06.221Z,12.90
2019-04-23T03:13:32.524Z,13.10
2019-04-23T03:16:16.105Z,13.00
2019-04-23T03:21:57.659Z,13.00
2019-04-23T03:24:31.162Z,12.90
2019-04-23T03:27:07.377Z,12.90
2019-04-23T03:35:09.051Z,13.00
2019-04-23T03:39:41.430Z,12.80
2019-04-23T03:41:59.699Z,12.80
2019-04-23T03:44:42.556Z,12.80
2019-04-23T03:49:43.903Z,12.70
2019-04-23T03:52:14.126Z,12.70
2019-04-23T03:59:52.165Z,12.70
2019-04-23T04:07:22.085Z,13.00
2019-04-23T04:09:47.667Z,12.90
2019-04-23T04:12:21.245Z,12.80
2019-04-23T04:17:20.114Z,12.80
2019-04-23T04:19:56.186Z,12.60
2019-04-23T04:22:38.075Z,12.70
2019-04-23T04:25:01.473Z,12.70
2019-04-23T04:27:36.869Z,12.90
2019-04-23T04:30:25.323Z,12.80
2019-04-23T04:32:42.335Z,12.80
2019-04-23T04:35:18.881Z,12.90
2019-04-23T04:42:42.260Z,12.90
2019-04-23T04:45:20.406Z,13.00
2019-04-23T04:47:44.833Z,13.00
2019-04-23T04:50:19.422Z,13.00
2019-04-23T04:55:21.022Z,13.00
2019-04-23T05:08:02.549Z,13.10
2019-04-23T05:14:21.028Z,13.00
2019-04-23T05:19:28.725Z,13.10
2019-04-23T05:21:54.920Z,13.10
2019-04-23T05:24:21.674Z,13.10
2019-04-23T05:26:57.979Z,13.10
2019-04-23T05:29:31.365Z,13.20
2019-04-23T05:32:02.873Z,13.10
2019-04-23T05:37:11.531Z,13.20
2019-04-23T05:39:49.500Z,13.00
2019-04-23T05:42:19.949Z,13.10
2019-04-23T05:44:57.243Z,13.20
2019-04-23T05:47:27.889Z,13.30
2019-04-23T05:50:00.596Z,13.10
2019-04-23T05:52:29.885Z,13.20
2019-04-23T05:55:01.724Z,13.20
2019-04-23T05:57:30.546Z,13.10
2019-04-23T05:59:59.068Z,13.20
2019-04-23T06:02:35.947Z,13.20
2019-04-23T06:05:02.143Z,13.10
2019-04-23T06:07:38.894Z,13.30
2019-04-23T06:09:59.177Z,13.30
2019-04-23T06:12:26.673Z,13.50
2019-04-23T06:14:57.568Z,13.50
2019-04-23T06:17:27.102Z,13.50
2019-04-23T06:20:03.084Z,13.70
2019-04-23T06:24:57.937Z,13.70
2019-04-23T06:27:32.432Z,13.70
2019-04-23T06:30:24.177Z,13.80
2019-04-23T06:32:34.216Z,13.90
2019-04-23T06:35:19.091Z,13.90
2019-04-23T06:37:49.837Z,13.90
2019-04-23T06:40:08.444Z,13.90
2019-04-23T06:42:54.726Z,14.00
2019-04-23T06:45:25.351Z,14.10
2019-04-23T06:47:54.165Z,14.10
2019-04-23T06:50:27.202Z,14.20
2019-04-23T06:53:01.924Z,14.40
2019-04-23T06:55:37.424Z,14.60
2019-04-23T06:58:13.549Z,14.60
2019-04-23T07:00:49.152Z,14.80
2019-04-23T07:03:22.126Z,14.70
2019-04-23T07:06:19.211Z,14.80
2019-04-23T07:08:48.518Z,15.00
2019-04-23T07:11:17.134Z,15.10
2019-04-23T07:13:50.711Z,15.20
2019-04-23T07:18:41.147Z,15.00
2019-04-23T07:21:15.412Z,15.30
2019-04-23T07:23:53.831Z,15.40
2019-04-23T07:26:27.386Z,15.40
2019-04-23T07:28:49.287Z,15.50
2019-04-23T07:31:26.666Z,15.60
2019-04-23T07:34:02.501Z,15.50
2019-04-23T07:36:38.895Z,15.70
2019-04-23T07:39:25.546Z,15.60
2019-04-23T07:42:28.057Z,15.60
2019-04-23T07:45:17.396Z,15.70
2019-04-23T07:50:41.329Z,16.00
2019-04-23T07:53:13.118Z,16.10
2019-04-23T07:56:00.910Z,16.20
2019-04-23T07:58:14.247Z,16.40
2019-04-23T08:00:47.124Z,16.60
2019-04-23T08:03:22.625Z,16.80
2019-04-23T08:05:39.724Z,16.90
2019-04-23T08:08:07.206Z,17.00
2019-04-23T08:10:46.610Z,17.00
2019-04-23T08:13:16.380Z,17.10
2019-04-23T08:15:43.034Z,17.50
2019-04-23T08:18:15.942Z,17.80
2019-04-23T08:20:42.587Z,18.20
2019-04-23T08:23:24.509Z,18.40
2019-04-23T08:26:19.351Z,19.00
2019-04-23T08:28:51.617Z,19.50
2019-04-23T08:31:15.173Z,19.90
2019-04-23T08:33:54.189Z,20.50
2019-04-23T08:36:23.788Z,21.10
2019-04-23T08:38:44.906Z,21.20
2019-04-23T08:41:36.035Z,21.70
2019-04-23T08:46:54.343Z,22.60
2019-04-23T08:49:22.766Z,22.70
2019-04-23T08:52:05.473Z,22.90
2019-04-23T08:54:21.898Z,23.20
2019-04-23T08:56:51.891Z,22.90
2019-04-23T08:59:20.524Z,23.40
2019-04-23T09:01:58.020Z,24.10
2019-04-23T09:04:16.863Z,24.30
2019-04-23T09:06:47.205Z,24.70
2019-04-23T09:09:21.923Z,25.30
2019-04-23T09:11:52.219Z,25.80
2019-04-23T09:14:04.559Z,26.70
2019-04-23T09:16:51.019Z,26.80
2019-04-23T09:19:23.298Z,27.10
2019-04-23T09:21:47.737Z,27.20
2019-04-23T09:24:09.279Z,27.50
2019-04-23T09:26:53.704Z,27.20
2019-04-23T09:29:23.173Z,27.30
2019-04-23T09:32:13.563Z,27.40
2019-04-23T09:35:02.463Z,27.20
2019-04-23T09:37:56.231Z,27.10
2019-04-23T09:43:31.596Z,28.10
2019-04-23T09:46:28.999Z,27.80
2019-04-23T09:49:07.519Z,27.70
2019-04-23T09:51:34.261Z,28.20
2019-04-23T09:54:02.984Z,28.00
2019-04-23T09:56:32.830Z,28.30
2019-04-23T09:59:01.193Z,27.50
2019-04-23T10:03:49.273Z,29.00
2019-04-23T10:06:11.788Z,29.60
2019-04-23T10:08:40.522Z,30.40
2019-04-23T10:11:05.435Z,30.50
2019-04-23T10:13:34.403Z,30.70
2019-04-23T10:16:04.449Z,29.80
2019-04-23T10:18:35.176Z,30.90
2019-04-23T10:21:03.449Z,31.10
2019-04-23T10:23:31.638Z,30.60
2019-04-23T10:26:01.494Z,30.10
2019-04-23T10:28:44.311Z,29.80
2019-04-23T10:31:12.758Z,29.70
2019-04-23T10:33:42.175Z,29.50
2019-04-23T10:36:17.262Z,28.30
2019-04-23T10:38:54.327Z,28.10
2019-04-23T10:41:14.186Z,27.30
2019-04-23T10:43:46.825Z,26.40
2019-04-23T10:47:02.692Z,25.90
2019-04-23T10:49:53.513Z,25.50
2019-04-23T10:54:40.863Z,24.60
2019-04-23T10:59:44.746Z,24.30
2019-04-23T11:09:55.747Z,24.20
2019-04-23T11:12:42.110Z,24.20
2019-04-23T11:17:46.019Z,23.90
2019-04-23T11:22:45.058Z,23.90
2019-04-23T11:25:29.964Z,23.90
2019-04-23T11:30:27.022Z,23.70
2019-04-23T11:32:56.444Z,23.70
2019-04-23T11:35:39.188Z,23.70
2019-04-23T11:38:15.863Z,23.90
2019-04-23T11:40:21.045Z,23.60
2019-04-23T11:50:35.008Z,23.80
2019-04-23T11:55:37.525Z,23.80
2019-04-23T11:58:08.710Z,23.90
2019-04-23T12:00:26.474Z,23.90
2019-04-23T12:03:01.702Z,23.80
2019-04-23T12:09:08.259Z,23.80
2019-04-23T12:14:40.532Z,23.90
2019-04-23T12:22:18.051Z,23.90
2019-04-23T12:25:06.404Z,23.90
2019-04-23T12:27:13.736Z,23.90
2019-04-23T12:29:47.760Z,24.10
2019-04-23T12:35:04.285Z,24.30
2019-04-23T12:45:27.051Z,23.70
2019-04-23T12:47:58.371Z,23.60
2019-04-23T12:52:47.236Z,23.60
2019-04-23T12:55:21.988Z,23.70
2019-04-23T12:57:46.740Z,23.50
2019-04-23T13:00:22.540Z,23.30
2019-04-23T13:05:21.405Z,23.60
2019-04-23T13:10:21.054Z,23.50
2019-04-23T13:13:04.491Z,23.40
2019-04-23T13:15:22.540Z,23.50
2019-04-23T13:17:55.492Z,23.40
2019-04-23T13:20:23.256Z,23.50
2019-04-23T13:22:59.721Z,23.60
2019-04-23T13:25:52.821Z,23.50
2019-04-23T13:33:30.120Z,23.30
2019-04-23T13:40:57.730Z,23.20
2019-04-23T13:43:30.387Z,23.30
2019-04-23T13:48:14.770Z,23.20
2019-04-23T13:55:58.003Z,23.20
2019-04-23T13:58:22.225Z,23.30
2019-04-23T14:01:20.142Z,23.30
2019-04-23T14:06:18.035Z,23.20
2019-04-23T14:08:50.090Z,23.20
2019-04-23T14:28:41.871Z,22.90
2019-04-23T14:31:11.175Z,22.90
2019-04-23T14:33:52.767Z,23.00
2019-04-23T14:36:17.274Z,23.00
2019-04-23T14:38:44.503Z,23.00
2019-04-23T14:44:01.811Z,22.80
2019-04-23T14:48:58.222Z,22.60
2019-04-23T14:51:32.288Z,22.70
2019-04-23T14:53:48.074Z,22.60
2019-04-23T14:56:24.077Z,22.60
2019-04-23T14:59:04.478Z,22.50
2019-04-23T15:03:56.061Z,22.50
2019-04-23T15:06:27.792Z,22.50
2019-04-23T15:09:13.956Z,22.50
2019-04-23T15:11:44.286Z,22.50
2019-04-23T15:13:56.817Z,22.60
2019-04-23T15:16:33.418Z,22.50
2019-04-23T15:29:06.994Z,22.40
2019-04-23T15:31:55.719Z,22.40
2019-04-23T15:34:18.948Z,22.30
2019-04-23T15:37:15.540Z,22.30
2019-04-23T15:39:32.795Z,22.20
2019-04-23T15:42:08.891Z,22.10
2019-04-23T15:44:16.733Z,22.10
2019-04-23T15:46:56.564Z,22.00
2019-04-23T15:49:36.405Z,22.00
2019-04-23T15:52:06.693Z,21.90
2019-04-23T15:54:37.588Z,22.00
2019-04-23T15:59:38.638Z,21.90
2019-04-23T16:01:41.316Z,22.00
2019-04-23T16:04:03.390Z,21.90
2019-04-23T16:06:34.530Z,21.80
2019-04-23T16:09:21.510Z,21.70
2019-04-23T16:11:51.679Z,21.60
2019-04-23T16:17:08.220Z,21.50
2019-04-23T16:20:06.192Z,21.50
2019-04-23T16:25:01.017Z,21.50
2019-04-23T16:27:19.568Z,21.40
2019-04-23T16:33:10.463Z,21.50
2019-04-23T16:35:32.969Z,21.40
2019-04-23T16:38:26.705Z,21.30
2019-04-23T16:43:10.118Z,21.10
2019-04-23T16:45:32.594Z,21.00
2019-04-23T16:48:14.118Z,20.90
2019-04-23T16:50:41.496Z,20.90
2019-04-23T16:53:11.659Z,20.90
2019-04-23T16:55:38.343Z,20.80
2019-04-23T16:58:11.719Z,20.70
2019-04-23T17:00:38.297Z,20.70
2019-04-23T17:03:12.809Z,20.60
2019-04-23T17:05:47.340Z,20.50
2019-04-23T17:08:30.667Z,20.50
2019-04-23T17:10:38.149Z,20.40
2019-04-23T17:13:25.610Z,20.50
2019-04-23T17:15:51.211Z,20.40
2019-04-23T17:18:12.031Z,20.30
2019-04-23T17:20:51.934Z,20.30
2019-04-23T17:26:13.495Z,20.30
2019-04-23T17:32:19.699Z,20.20
2019-04-23T17:35:08.177Z,20.10
2019-04-23T17:37:33.168Z,20.10
2019-04-23T17:40:13.590Z,20.10
2019-04-23T17:43:26.465Z,19.90
2019-04-23T17:56:01.572Z,19.60
2019-04-23T17:58:30.110Z,19.60
2019-04-23T18:01:11.009Z,19.60
2019-04-23T18:03:46.021Z,19.50
2019-04-23T18:06:21.356Z,19.50
2019-04-23T18:08:32.916Z,19.50
2019-04-23T18:13:57.398Z,19.40
2019-04-23T18:16:30.392Z,19.30
2019-04-23T18:24:27.698Z,19.20
2019-04-23T18:29:31.632Z,19.30
2019-04-23T18:32:11.077Z,19.30
2019-04-23T18:34:56.949Z,19.10
2019-04-23T18:37:19.387Z,19.00
2019-04-23T18:39:47.084Z,19.00
2019-04-23T18:42:29.651Z,18.80
2019-04-23T18:44:52.171Z,18.80
2019-04-23T18:47:35.419Z,18.80
2019-04-23T18:50:17.628Z,18.70
2019-04-23T18:55:14.092Z,18.50
2019-04-23T18:57:48.580Z,18.60
2019-04-23T19:00:18.880Z,18.60
2019-04-23T19:03:11.387Z,18.60
2019-04-23T19:08:58.277Z,18.50
2019-04-23T19:11:51.415Z,18.50
2019-04-23T19:14:18.457Z,18.20
2019-04-23T19:17:07.302Z,18.30
2019-04-23T19:24:13.820Z,18.10
2019-04-23T19:32:00.866Z,17.90
2019-04-23T19:37:06.075Z,17.70
2019-04-23T19:39:40.570Z,17.60
2019-04-23T19:44:44.078Z,17.40
2019-04-23T19:49:40.667Z,17.40
2019-04-23T19:52:10.770Z,17.40
2019-04-23T19:54:55.314Z,17.20
2019-04-23T19:57:19.684Z,17.20
2019-04-23T19:59:54.268Z,17.30
2019-04-23T20:12:25.968Z,16.90
2019-04-23T20:14:58.132Z,16.80
2019-04-23T20:20:19.817Z,16.90
2019-04-23T20:22:43.562Z,17.10
2019-04-23T20:25:20.746Z,17.10
2019-04-23T20:27:47.948Z,17.10
2019-04-23T20:36:00.623Z,16.90
2019-04-23T20:38:33.377Z,16.80
2019-04-23T20:40:54.136Z,16.80
2019-04-23T20:43:22.855Z,16.70
2019-04-23T20:45:58.938Z,16.80
2019-04-23T20:48:32.408Z,16.80
2019-04-23T20:51:18.036Z,16.80
2019-04-23T20:53:36.234Z,16.80
2019-04-23T20:56:10.128Z,16.70
2019-04-23T20:58:54.779Z,16.80
2019-04-23T21:01:30.575Z,16.70
2019-04-23T21:06:30.326Z,16.60
2019-04-23T21:09:17.229Z,16.60
2019-04-23T21:11:46.261Z,16.80
2019-04-23T21:16:37.416Z,16.70
2019-04-23T21:19:02.038Z,16.60
2019-04-23T21:21:42.958Z,16.60
2019-04-23T21:24:26.436Z,16.70
2019-04-23T21:26:44.188Z,16.70
2019-04-23T21:29:21.563Z,16.70
2019-04-23T21:31:47.712Z,16.70
2019-04-23T21:34:17.331Z,16.60
2019-04-23T21:36:49.275Z,16.50
2019-04-23T21:40:12.410Z,16.60
2019-04-23T21:42:44.408Z,16.60
2019-04-23T21:44:59.306Z,16.60
2019-04-23T21:47:44.212Z,16.60
2019-04-23T21:50:12.318Z,16.50
2019-04-23T21:52:36.180Z,16.40
2019-04-23T21:55:04.055Z,16.40
2019-04-23T21:57:44.424Z,16.40
2019-04-23T22:00:07.855Z,16.40
2019-04-23T22:02:45.566Z,16.30
2019-04-23T22:05:19.390Z,16.30
2019-04-23T22:08:02.215Z,16.30
2019-04-23T22:10:18.179Z,16.30
2019-04-23T22:13:02.121Z,16.20
2019-04-23T22:15:27.373Z,16.10
2019-04-23T22:23:03.710Z,16.00
2019-04-23T22:25:23.703Z,16.00
2019-04-23T22:27:54.892Z,16.00
2019-04-23T22:30:25.859Z,16.00
2019-04-23T22:35:24.301Z,16.00
2019-04-23T22:38:01.026Z,16.10
2019-04-23T22:40:15.054Z,16.20
2019-04-23T22:43:09.094Z,16.40
2019-04-23T22:45:44.420Z,16.60
2019-04-23T22:47:54.970Z,16.50
2019-04-23T22:50:28.277Z,16.50
2019-04-23T22:52:53.700Z,16.50
2019-04-23T22:55:23.575Z,16.50
2019-04-23T22:58:05.172Z,16.40
2019-04-23T23:06:03.142Z,16.20
2019-04-23T23:11:02.572Z,16.30
2019-04-23T23:13:18.519Z,16.50
2019-04-23T23:15:54.667Z,16.60
2019-04-23T23:23:25.130Z,16.50
2019-04-23T23:26:02.799Z,16.50
2019-04-23T23:31:06.871Z,16.40
2019-04-23T23:33:35.919Z,16.50
2019-04-23T23:36:05.854Z,16.40
2019-04-23T23:38:41.759Z,16.40
2019-04-23T23:43:44.222Z,16.30
2019-04-23T23:46:31.092Z,16.30
2019-04-23T23:48:41.794Z,16.40
2019-04-23T23:51:17.825Z,16.40
2019-04-23T23:54:05.061Z,16.40
2019-04-23T23:56:17.343Z,16.40
